sensor_id;sensor_type;location;lat;lon;timestamp;P1;durP1;ratioP1;P2;durP2;ratioP2
35225;SDS011;21813;49.686;21.766;2022-08-01T00:01:48;2.58;;;2.38;;
35225;SDS011;21813;49.686;21.766;2022-08-01T00:04:14;3.85;;;3.15;;
35225;SDS011;21813;49.686;21.766;2022-08-01T00:06:41;4.13;;;3.72;;
35225;SDS011;21813;49.686;21.766;2022-08-01T00:09:07;5.35;;;4.40;;
35225;SDS011;21813;49.686;21.766;2022-08-01T00:11:33;6.25;;;4.20;;
35225;SDS011;21813;49.686;21.766;2022-08-01T00:13:59;6.10;;;4.90;;
35225;SDS011;21813;49.686;21.766;2022-08-01T00:16:25;9.55;;;5.60;;
35225;SDS011;21813;49.686;21.766;2022-08-01T00:18:51;7.57;;;6.05;;
35225;SDS011;21813;49.686;21.766;2022-08-01T00:21:17;12.00;;;6.63;;
35225;SDS011;21813;49.686;21.766;2022-08-01T00:23:43;8.50;;;7.07;;
35225;SDS011;21813;49.686;21.766;2022-08-01T00:26:11;13.07;;;8.82;;
35225;SDS011;21813;49.686;21.766;2022-08-01T00:28:38;13.50;;;8.75;;
35225;SDS011;21813;49.686;21.766;2022-08-01T00:31:03;11.85;;;8.88;;
35225;SDS011;21813;49.686;21.766;2022-08-01T00:33:29;14.18;;;10.68;;
35225;SDS011;21813;49.686;21.766;2022-08-01T00:35:55;13.88;;;8.63;;
35225;SDS011;21813;49.686;21.766;2022-08-01T00:38:21;12.85;;;8.15;;
35225;SDS011;21813;49.686;21.766;2022-08-01T00:40:47;9.27;;;6.32;;
35225;SDS011;21813;49.686;21.766;2022-08-01T00:43:14;7.78;;;4.97;;
35225;SDS011;21813;49.686;21.766;2022-08-01T00:45:40;9.75;;;4.93;;
35225;SDS011;21813;49.686;21.766;2022-08-01T00:48:06;7.63;;;4.70;;
35225;SDS011;21813;49.686;21.766;2022-08-01T00:50:33;4.05;;;3.65;;
35225;SDS011;21813;49.686;21.766;2022-08-01T00:52:59;5.30;;;3.70;;
35225;SDS011;21813;49.686;21.766;2022-08-01T00:55:26;5.57;;;3.58;;
35225;SDS011;21813;49.686;21.766;2022-08-01T00:57:53;4.75;;;3.08;;
35225;SDS011;21813;49.686;21.766;2022-08-01T01:00:19;4.28;;;3.53;;
35225;SDS011;21813;49.686;21.766;2022-08-01T01:02:45;6.05;;;3.75;;
35225;SDS011;21813;49.686;21.766;2022-08-01T01:05:12;8.93;;;3.75;;
35225;SDS011;21813;49.686;21.766;2022-08-01T01:16:11;7.05;;;4.53;;
35225;SDS011;21813;49.686;21.766;2022-08-01T01:18:46;7.95;;;5.40;;
35225;SDS011;21813;49.686;21.766;2022-08-01T01:30:25;9.63;;;5.07;;
35225;SDS011;21813;49.686;21.766;2022-08-01T01:32:55;7.93;;;4.22;;
35225;SDS011;21813;49.686;21.766;2022-08-01T01:35:28;5.43;;;4.28;;
35225;SDS011;21813;49.686;21.766;2022-08-01T01:38:00;5.47;;;4.97;;
35225;SDS011;21813;49.686;21.766;2022-08-01T01:40:31;6.32;;;4.70;;
35225;SDS011;21813;49.686;21.766;2022-08-01T01:42:58;8.05;;;4.82;;
35225;SDS011;21813;49.686;21.766;2022-08-01T01:45:24;6.25;;;4.75;;
35225;SDS011;21813;49.686;21.766;2022-08-01T01:47:52;4.75;;;4.25;;
35225;SDS011;21813;49.686;21.766;2022-08-01T01:50:20;4.55;;;3.90;;
35225;SDS011;21813;49.686;21.766;2022-08-01T01:52:47;3.78;;;3.22;;
35225;SDS011;21813;49.686;21.766;2022-08-01T01:55:16;3.28;;;2.97;;
35225;SDS011;21813;49.686;21.766;2022-08-01T01:57:44;4.03;;;3.10;;
35225;SDS011;21813;49.686;21.766;2022-08-01T02:00:12;3.97;;;2.88;;
35225;SDS011;21813;49.686;21.766;2022-08-01T02:02:40;2.67;;;2.47;;
35225;SDS011;21813;49.686;21.766;2022-08-01T02:05:08;3.22;;;2.72;;
35225;SDS011;21813;49.686;21.766;2022-08-01T02:07:35;3.30;;;2.72;;
35225;SDS011;21813;49.686;21.766;2022-08-01T02:10:05;3.22;;;2.80;;
35225;SDS011;21813;49.686;21.766;2022-08-01T02:12:33;2.95;;;2.70;;
35225;SDS011;21813;49.686;21.766;2022-08-01T02:15:02;3.28;;;2.97;;
35225;SDS011;21813;49.686;21.766;2022-08-01T02:17:30;5.13;;;3.20;;
35225;SDS011;21813;49.686;21.766;2022-08-01T02:19:56;5.22;;;3.40;;
35225;SDS011;21813;49.686;21.766;2022-08-01T02:28:01;4.35;;;3.70;;
35225;SDS011;21813;49.686;21.766;2022-08-01T02:30:33;7.55;;;3.78;;
35225;SDS011;21813;49.686;21.766;2022-08-01T02:33:17;5.82;;;4.32;;
35225;SDS011;21813;49.686;21.766;2022-08-01T02:35:50;4.43;;;4.03;;
35225;SDS011;21813;49.686;21.766;2022-08-01T02:38:20;5.03;;;4.53;;
35225;SDS011;21813;49.686;21.766;2022-08-01T02:40:50;5.20;;;4.70;;
35225;SDS011;21813;49.686;21.766;2022-08-01T02:43:18;4.82;;;4.35;;
35225;SDS011;21813;49.686;21.766;2022-08-01T02:45:47;4.57;;;3.47;;
35225;SDS011;21813;49.686;21.766;2022-08-01T02:48:18;3.58;;;3.22;;
35225;SDS011;21813;49.686;21.766;2022-08-01T02:50:47;7.43;;;3.90;;
35225;SDS011;21813;49.686;21.766;2022-08-01T02:53:14;4.25;;;3.58;;
35225;SDS011;21813;49.686;21.766;2022-08-01T02:55:44;4.07;;;3.20;;
35225;SDS011;21813;49.686;21.766;2022-08-01T02:58:14;2.47;;;2.25;;
35225;SDS011;21813;49.686;21.766;2022-08-01T03:00:44;4.38;;;2.05;;
35225;SDS011;21813;49.686;21.766;2022-08-01T03:16:42;0.95;;;0.70;;
35225;SDS011;21813;49.686;21.766;2022-08-01T03:19:11;0.80;;;0.70;;
35225;SDS011;21813;49.686;21.766;2022-08-01T03:21:39;1.25;;;1.15;;
35225;SDS011;21813;49.686;21.766;2022-08-01T03:24:06;2.28;;;1.30;;
35225;SDS011;21813;49.686;21.766;2022-08-01T03:26:36;2.78;;;1.80;;
35225;SDS011;21813;49.686;21.766;2022-08-01T03:29:05;3.38;;;2.00;;
35225;SDS011;21813;49.686;21.766;2022-08-01T03:31:37;7.55;;;2.55;;
35225;SDS011;21813;49.686;21.766;2022-08-01T03:34:08;4.55;;;3.08;;
35225;SDS011;21813;49.686;21.766;2022-08-01T03:36:34;4.45;;;2.67;;
35225;SDS011;21813;49.686;21.766;2022-08-01T03:39:09;3.30;;;2.97;;
35225;SDS011;21813;49.686;21.766;2022-08-01T03:41:37;3.53;;;3.22;;
35225;SDS011;21813;49.686;21.766;2022-08-01T03:44:15;5.13;;;3.00;;
35225;SDS011;21813;49.686;21.766;2022-08-01T03:46:47;3.70;;;3.40;;
35225;SDS011;21813;49.686;21.766;2022-08-01T03:52:41;2.70;;;2.50;;
35225;SDS011;21813;49.686;21.766;2022-08-01T03:55:11;3.47;;;3.17;;
35225;SDS011;21813;49.686;21.766;2022-08-01T03:57:40;2.85;;;1.90;;
35225;SDS011;21813;49.686;21.766;2022-08-01T04:00:07;1.52;;;1.23;;
35225;SDS011;21813;49.686;21.766;2022-08-01T04:02:34;0.85;;;0.85;;
35225;SDS011;21813;49.686;21.766;2022-08-01T04:05:01;1.40;;;1.30;;
35225;SDS011;21813;49.686;21.766;2022-08-01T04:07:29;1.80;;;0.98;;
35225;SDS011;21813;49.686;21.766;2022-08-01T04:09:57;0.70;;;0.70;;
35225;SDS011;21813;49.686;21.766;2022-08-01T04:12:23;0.93;;;0.88;;
35225;SDS011;21813;49.686;21.766;2022-08-01T04:14:49;0.60;;;0.60;;
35225;SDS011;21813;49.686;21.766;2022-08-01T04:17:16;0.60;;;0.57;;
35225;SDS011;21813;49.686;21.766;2022-08-01T04:19:45;0.60;;;0.60;;
35225;SDS011;21813;49.686;21.766;2022-08-01T04:22:11;0.50;;;0.50;;
35225;SDS011;21813;49.686;21.766;2022-08-01T04:24:48;1.88;;;0.70;;
35225;SDS011;21813;49.686;21.766;2022-08-01T04:27:24;0.77;;;0.60;;
35225;SDS011;21813;49.686;21.766;2022-08-01T04:29:58;0.45;;;0.45;;
35225;SDS011;21813;49.686;21.766;2022-08-01T04:32:26;1.02;;;0.30;;
35225;SDS011;21813;49.686;21.766;2022-08-01T04:34:55;0.70;;;0.47;;
35225;SDS011;21813;49.686;21.766;2022-08-01T04:37:27;0.30;;;0.30;;
35225;SDS011;21813;49.686;21.766;2022-08-01T04:39:53;0.30;;;0.30;;
35225;SDS011;21813;49.686;21.766;2022-08-01T04:42:20;0.30;;;0.30;;
35225;SDS011;21813;49.686;21.766;2022-08-01T04:44:48;0.40;;;0.40;;
35225;SDS011;21813;49.686;21.766;2022-08-01T04:47:14;0.40;;;0.40;;
35225;SDS011;21813;49.686;21.766;2022-08-01T04:49:39;0.43;;;0.43;;
35225;SDS011;21813;49.686;21.766;2022-08-01T04:52:06;1.30;;;0.50;;
35225;SDS011;21813;49.686;21.766;2022-08-01T04:54:35;1.90;;;0.60;;
35225;SDS011;21813;49.686;21.766;2022-08-01T04:57:04;2.10;;;0.70;;
35225;SDS011;21813;49.686;21.766;2022-08-01T04:59:32;1.00;;;1.00;;
35225;SDS011;21813;49.686;21.766;2022-08-01T05:02:07;1.55;;;1.40;;
35225;SDS011;21813;49.686;21.766;2022-08-01T05:04:34;1.48;;;1.38;;
35225;SDS011;21813;49.686;21.766;2022-08-01T05:07:00;1.20;;;1.10;;
35225;SDS011;21813;49.686;21.766;2022-08-01T05:09:26;1.20;;;1.10;;
35225;SDS011;21813;49.686;21.766;2022-08-01T05:11:53;2.42;;;1.88;;
35225;SDS011;21813;49.686;21.766;2022-08-01T05:14:19;5.68;;;4.28;;
35225;SDS011;21813;49.686;21.766;2022-08-01T05:16:46;6.28;;;4.43;;
35225;SDS011;21813;49.686;21.766;2022-08-01T05:19:12;4.95;;;4.50;;
35225;SDS011;21813;49.686;21.766;2022-08-01T05:21:38;5.95;;;4.00;;
35225;SDS011;21813;49.686;21.766;2022-08-01T05:24:04;3.75;;;3.45;;
35225;SDS011;21813;49.686;21.766;2022-08-01T05:26:31;3.92;;;3.47;;
35225;SDS011;21813;49.686;21.766;2022-08-01T05:28:58;3.20;;;2.90;;
35225;SDS011;21813;49.686;21.766;2022-08-01T05:31:24;2.85;;;2.65;;
35225;SDS011;21813;49.686;21.766;2022-08-01T05:33:51;4.10;;;3.17;;
35225;SDS011;21813;49.686;21.766;2022-08-01T05:36:18;3.78;;;3.08;;
35225;SDS011;21813;49.686;21.766;2022-08-01T05:38:44;3.97;;;3.63;;
35225;SDS011;21813;49.686;21.766;2022-08-01T05:41:10;3.92;;;3.63;;
35225;SDS011;21813;49.686;21.766;2022-08-01T05:43:36;3.60;;;3.30;;
35225;SDS011;21813;49.686;21.766;2022-08-01T05:46:02;4.80;;;4.40;;
35225;SDS011;21813;49.686;21.766;2022-08-01T05:48:29;5.35;;;4.10;;
35225;SDS011;21813;49.686;21.766;2022-08-01T05:50:55;5.07;;;4.03;;
35225;SDS011;21813;49.686;21.766;2022-08-01T05:53:21;5.18;;;4.68;;
35225;SDS011;21813;49.686;21.766;2022-08-01T05:55:47;5.60;;;4.80;;
35225;SDS011;21813;49.686;21.766;2022-08-01T05:58:13;5.70;;;4.95;;
35225;SDS011;21813;49.686;21.766;2022-08-01T06:00:39;5.18;;;4.78;;
35225;SDS011;21813;49.686;21.766;2022-08-01T06:03:06;5.35;;;4.85;;
35225;SDS011;21813;49.686;21.766;2022-08-01T06:05:32;5.38;;;4.88;;
35225;SDS011;21813;49.686;21.766;2022-08-01T06:07:57;9.00;;;5.03;;
35225;SDS011;21813;49.686;21.766;2022-08-01T06:10:24;6.53;;;5.38;;
35225;SDS011;21813;49.686;21.766;2022-08-01T06:15:41;9.80;;;6.50;;
35225;SDS011;21813;49.686;21.766;2022-08-01T06:18:07;7.80;;;6.60;;
35225;SDS011;21813;49.686;21.766;2022-08-01T06:20:32;8.13;;;7.28;;
35225;SDS011;21813;49.686;21.766;2022-08-01T06:22:59;9.48;;;7.50;;
35225;SDS011;21813;49.686;21.766;2022-08-01T06:25:28;11.80;;;8.82;;
35225;SDS011;21813;49.686;21.766;2022-08-01T06:27:54;12.30;;;9.20;;
35225;SDS011;21813;49.686;21.766;2022-08-01T06:30:20;13.25;;;9.40;;
35225;SDS011;21813;49.686;21.766;2022-08-01T06:32:46;14.10;;;10.27;;
35225;SDS011;21813;49.686;21.766;2022-08-01T06:35:13;13.43;;;10.30;;
35225;SDS011;21813;49.686;21.766;2022-08-01T06:37:42;17.02;;;11.50;;
35225;SDS011;21813;49.686;21.766;2022-08-01T06:40:10;15.80;;;12.20;;
35225;SDS011;21813;49.686;21.766;2022-08-01T06:42:37;17.00;;;13.98;;
35225;SDS011;21813;49.686;21.766;2022-08-01T06:45:05;16.42;;;13.23;;
35225;SDS011;21813;49.686;21.766;2022-08-01T06:47:32;21.45;;;15.77;;
35225;SDS011;21813;49.686;21.766;2022-08-01T06:49:58;19.73;;;13.70;;
35225;SDS011;21813;49.686;21.766;2022-08-01T06:52:25;19.20;;;14.50;;
35225;SDS011;21813;49.686;21.766;2022-08-01T06:54:51;25.05;;;17.38;;
35225;SDS011;21813;49.686;21.766;2022-08-01T06:57:18;22.90;;;18.02;;
35225;SDS011;21813;49.686;21.766;2022-08-01T07:00:04;30.67;;;20.65;;
35225;SDS011;21813;49.686;21.766;2022-08-01T07:02:37;28.40;;;20.02;;
35225;SDS011;21813;49.686;21.766;2022-08-01T07:05:03;23.48;;;18.52;;
35225;SDS011;21813;49.686;21.766;2022-08-01T07:07:29;23.20;;;18.10;;
35225;SDS011;21813;49.686;21.766;2022-08-01T07:10:15;20.63;;;16.23;;
35225;SDS011;21813;49.686;21.766;2022-08-01T07:12:42;18.55;;;16.35;;
35225;SDS011;21813;49.686;21.766;2022-08-01T07:15:08;20.25;;;14.30;;
35225;SDS011;21813;49.686;21.766;2022-08-01T07:17:39;15.55;;;13.13;;
35225;SDS011;21813;49.686;21.766;2022-08-01T07:20:06;15.93;;;12.93;;
35225;SDS011;21813;49.686;21.766;2022-08-01T07:22:33;19.50;;;14.38;;
35225;SDS011;21813;49.686;21.766;2022-08-01T07:25:08;19.13;;;14.57;;
35225;SDS011;21813;49.686;21.766;2022-08-01T07:27:34;19.67;;;13.90;;
35225;SDS011;21813;49.686;21.766;2022-08-01T07:30:09;20.85;;;12.52;;
35225;SDS011;21813;49.686;21.766;2022-08-01T07:32:35;16.65;;;12.27;;
35225;SDS011;21813;49.686;21.766;2022-08-01T07:35:01;13.25;;;11.65;;
35225;SDS011;21813;49.686;21.766;2022-08-01T07:37:40;15.85;;;11.82;;
35225;SDS011;21813;49.686;21.766;2022-08-01T07:40:06;13.05;;;10.90;;
35225;SDS011;21813;49.686;21.766;2022-08-01T07:42:33;11.40;;;10.18;;
35225;SDS011;21813;49.686;21.766;2022-08-01T07:44:59;11.10;;;9.65;;
35225;SDS011;21813;49.686;21.766;2022-08-01T07:47:25;10.52;;;9.35;;
35225;SDS011;21813;49.686;21.766;2022-08-01T07:49:52;10.68;;;9.15;;
35225;SDS011;21813;49.686;21.766;2022-08-01T07:52:24;9.35;;;8.40;;
35225;SDS011;21813;49.686;21.766;2022-08-01T07:54:49;8.98;;;8.07;;
35225;SDS011;21813;49.686;21.766;2022-08-01T07:57:16;9.50;;;8.52;;
35225;SDS011;21813;49.686;21.766;2022-08-01T07:59:43;10.70;;;7.65;;
35225;SDS011;21813;49.686;21.766;2022-08-01T08:02:09;8.75;;;7.57;;
35225;SDS011;21813;49.686;21.766;2022-08-01T08:04:35;10.50;;;7.97;;
35225;SDS011;21813;49.686;21.766;2022-08-01T08:07:01;11.27;;;8.00;;
35225;SDS011;21813;49.686;21.766;2022-08-01T08:21:14;9.55;;;7.47;;
35225;SDS011;21813;49.686;21.766;2022-08-01T08:23:41;10.00;;;9.10;;
35225;SDS011;21813;49.686;21.766;2022-08-01T08:26:26;10.60;;;8.85;;
35225;SDS011;21813;49.686;21.766;2022-08-01T08:34:11;10.00;;;7.47;;
35225;SDS011;21813;49.686;21.766;2022-08-01T08:40:19;9.15;;;7.35;;
35225;SDS011;21813;49.686;21.766;2022-08-01T08:42:57;6.57;;;5.88;;
35225;SDS011;21813;49.686;21.766;2022-08-01T08:45:40;7.57;;;5.65;;
35225;SDS011;21813;49.686;21.766;2022-08-01T09:01:07;5.22;;;4.72;;
35225;SDS011;21813;49.686;21.766;2022-08-01T09:03:36;6.47;;;4.43;;
35225;SDS011;21813;49.686;21.766;2022-08-01T09:06:02;4.80;;;4.30;;
35225;SDS011;21813;49.686;21.766;2022-08-01T09:08:28;5.35;;;4.40;;
35225;SDS011;21813;49.686;21.766;2022-08-01T09:10:54;6.10;;;4.28;;
35225;SDS011;21813;49.686;21.766;2022-08-01T09:13:20;5.03;;;4.50;;
35225;SDS011;21813;49.686;21.766;2022-08-01T09:18:25;8.38;;;4.10;;
35225;SDS011;21813;49.686;21.766;2022-08-01T09:23:32;6.82;;;4.63;;
35225;SDS011;21813;49.686;21.766;2022-08-01T09:25:59;5.35;;;4.07;;
35225;SDS011;21813;49.686;21.766;2022-08-01T09:28:28;4.50;;;4.10;;
35225;SDS011;21813;49.686;21.766;2022-08-01T09:30:57;4.95;;;3.88;;
35225;SDS011;21813;49.686;21.766;2022-08-01T09:33:22;4.13;;;3.65;;
35225;SDS011;21813;49.686;21.766;2022-08-01T09:35:55;4.18;;;3.53;;
35225;SDS011;21813;49.686;21.766;2022-08-01T09:38:25;4.22;;;3.83;;
35225;SDS011;21813;49.686;21.766;2022-08-01T09:43:21;4.18;;;3.78;;
35225;SDS011;21813;49.686;21.766;2022-08-01T09:45:49;3.58;;;3.28;;
35225;SDS011;21813;49.686;21.766;2022-08-01T09:48:15;4.07;;;3.22;;
35225;SDS011;21813;49.686;21.766;2022-08-01T09:50:44;4.22;;;3.72;;
35225;SDS011;21813;49.686;21.766;2022-08-01T09:53:14;3.77;;;3.40;;
35225;SDS011;21813;49.686;21.766;2022-08-01T09:55:41;4.05;;;3.63;;
35225;SDS011;21813;49.686;21.766;2022-08-01T09:58:07;4.10;;;3.72;;
35225;SDS011;21813;49.686;21.766;2022-08-01T10:00:34;5.72;;;3.47;;
35225;SDS011;21813;49.686;21.766;2022-08-01T10:05:47;6.65;;;3.70;;
35225;SDS011;21813;49.686;21.766;2022-08-01T10:08:13;5.32;;;3.85;;
35225;SDS011;21813;49.686;21.766;2022-08-01T10:10:39;3.40;;;3.10;;
35225;SDS011;21813;49.686;21.766;2022-08-01T10:13:07;6.20;;;3.35;;
35225;SDS011;21813;49.686;21.766;2022-08-01T10:15:34;6.60;;;3.75;;
35225;SDS011;21813;49.686;21.766;2022-08-01T10:18:01;6.35;;;3.40;;
35225;SDS011;21813;49.686;21.766;2022-08-01T10:20:32;3.30;;;2.70;;
35225;SDS011;21813;49.686;21.766;2022-08-01T10:22:59;4.03;;;2.80;;
35225;SDS011;21813;49.686;21.766;2022-08-01T10:25:29;3.08;;;2.70;;
35225;SDS011;21813;49.686;21.766;2022-08-01T10:28:03;6.85;;;2.97;;
35225;SDS011;21813;49.686;21.766;2022-08-01T10:30:35;3.47;;;3.17;;
35225;SDS011;21813;49.686;21.766;2022-08-01T10:33:04;3.28;;;2.97;;
35225;SDS011;21813;49.686;21.766;2022-08-01T10:35:32;4.35;;;3.30;;
35225;SDS011;21813;49.686;21.766;2022-08-01T10:38:05;5.03;;;3.08;;
35225;SDS011;21813;49.686;21.766;2022-08-01T10:40:33;3.63;;;3.00;;
35225;SDS011;21813;49.686;21.766;2022-08-01T10:42:59;3.97;;;3.58;;
35225;SDS011;21813;49.686;21.766;2022-08-01T10:45:25;4.43;;;3.13;;
35225;SDS011;21813;49.686;21.766;2022-08-01T10:47:59;3.95;;;2.85;;
35225;SDS011;21813;49.686;21.766;2022-08-01T10:53:06;3.25;;;2.88;;
35225;SDS011;21813;49.686;21.766;2022-08-01T10:58:37;3.58;;;3.03;;
35225;SDS011;21813;49.686;21.766;2022-08-01T11:01:30;5.00;;;2.67;;
35225;SDS011;21813;49.686;21.766;2022-08-01T11:09:45;3.92;;;3.00;;
35225;SDS011;21813;49.686;21.766;2022-08-01T11:12:40;3.72;;;2.70;;
35225;SDS011;21813;49.686;21.766;2022-08-01T11:17:44;5.22;;;2.67;;
35225;SDS011;21813;49.686;21.766;2022-08-01T11:20:15;2.50;;;2.30;;
35225;SDS011;21813;49.686;21.766;2022-08-01T11:30:51;2.17;;;1.98;;
35225;SDS011;21813;49.686;21.766;2022-08-01T11:33:48;5.65;;;1.98;;
35225;SDS011;21813;49.686;21.766;2022-08-01T11:41:32;3.58;;;2.13;;
35225;SDS011;21813;49.686;21.766;2022-08-01T11:44:06;2.55;;;2.03;;
35225;SDS011;21813;49.686;21.766;2022-08-01T11:52:12;3.35;;;2.22;;
35225;SDS011;21813;49.686;21.766;2022-08-01T11:57:20;3.33;;;1.70;;
35225;SDS011;21813;49.686;21.766;2022-08-01T11:59:52;1.95;;;1.65;;
35225;SDS011;21813;49.686;21.766;2022-08-01T12:05:22;2.85;;;1.52;;
35225;SDS011;21813;49.686;21.766;2022-08-01T12:07:56;3.72;;;1.70;;
35225;SDS011;21813;49.686;21.766;2022-08-01T12:10:28;2.75;;;1.80;;
35225;SDS011;21813;49.686;21.766;2022-08-01T12:13:03;1.88;;;1.77;;
35225;SDS011;21813;49.686;21.766;2022-08-01T12:15:34;5.63;;;2.15;;
35225;SDS011;21813;49.686;21.766;2022-08-01T12:18:02;2.88;;;2.15;;
35225;SDS011;21813;49.686;21.766;2022-08-01T12:20:32;3.42;;;1.85;;
35225;SDS011;21813;49.686;21.766;2022-08-01T12:23:17;3.00;;;1.95;;
35225;SDS011;21813;49.686;21.766;2022-08-01T12:25:50;3.33;;;1.90;;
35225;SDS011;21813;49.686;21.766;2022-08-01T12:28:38;2.88;;;2.10;;
35225;SDS011;21813;49.686;21.766;2022-08-01T12:31:14;2.20;;;2.00;;
35225;SDS011;21813;49.686;21.766;2022-08-01T12:33:40;2.17;;;1.90;;
35225;SDS011;21813;49.686;21.766;2022-08-01T12:36:06;2.55;;;2.00;;
35225;SDS011;21813;49.686;21.766;2022-08-01T12:38:38;2.20;;;2.00;;
35225;SDS011;21813;49.686;21.766;2022-08-01T12:45:57;2.45;;;2.10;;
35225;SDS011;21813;49.686;21.766;2022-08-01T12:48:37;1.85;;;1.75;;
35225;SDS011;21813;49.686;21.766;2022-08-01T12:51:36;4.25;;;2.28;;
35225;SDS011;21813;49.686;21.766;2022-08-01T12:54:10;3.70;;;2.10;;
35225;SDS011;21813;49.686;21.766;2022-08-01T13:03:11;3.30;;;2.03;;
35225;SDS011;21813;49.686;21.766;2022-08-01T13:09:14;3.58;;;2.30;;
35225;SDS011;21813;49.686;21.766;2022-08-01T13:11:46;4.95;;;2.30;;
35225;SDS011;21813;49.686;21.766;2022-08-01T13:18:35;2.67;;;2.17;;
35225;SDS011;21813;49.686;21.766;2022-08-01T13:21:29;6.47;;;1.92;;
35225;SDS011;21813;49.686;21.766;2022-08-01T13:24:15;2.55;;;1.70;;
35225;SDS011;21813;49.686;21.766;2022-08-01T13:30:17;6.22;;;2.17;;
35225;SDS011;21813;49.686;21.766;2022-08-01T13:32:58;2.43;;;2.23;;
35225;SDS011;21813;49.686;21.766;2022-08-01T13:35:25;3.08;;;2.00;;
35225;SDS011;21813;49.686;21.766;2022-08-01T13:37:51;5.63;;;2.17;;
35225;SDS011;21813;49.686;21.766;2022-08-01T13:40:24;1.77;;;1.67;;
35225;SDS011;21813;49.686;21.766;2022-08-01T13:42:56;3.00;;;2.15;;
35225;SDS011;21813;49.686;21.766;2022-08-01T13:45:27;2.72;;;1.80;;
35225;SDS011;21813;49.686;21.766;2022-08-01T13:47:55;4.43;;;1.73;;
35225;SDS011;21813;49.686;21.766;2022-08-01T13:57:56;4.28;;;1.98;;
35225;SDS011;21813;49.686;21.766;2022-08-01T14:00:22;3.25;;;1.85;;
35225;SDS011;21813;49.686;21.766;2022-08-01T14:28:36;4.00;;;1.55;;
35225;SDS011;21813;49.686;21.766;2022-08-01T14:31:06;5.10;;;1.50;;
35225;SDS011;21813;49.686;21.766;2022-08-01T14:43:03;9.30;;;2.05;;
35225;SDS011;21813;49.686;21.766;2022-08-01T14:45:35;5.60;;;2.03;;
35225;SDS011;21813;49.686;21.766;2022-08-01T14:48:01;2.35;;;1.42;;
35225;SDS011;21813;49.686;21.766;2022-08-01T14:50:34;2.70;;;1.80;;
35225;SDS011;21813;49.686;21.766;2022-08-01T14:53:00;2.28;;;1.52;;
35225;SDS011;21813;49.686;21.766;2022-08-01T14:55:26;3.40;;;1.55;;
35225;SDS011;21813;49.686;21.766;2022-08-01T14:57:53;2.78;;;1.60;;
35225;SDS011;21813;49.686;21.766;2022-08-01T15:00:19;2.03;;;1.30;;
35225;SDS011;21813;49.686;21.766;2022-08-01T15:02:45;3.25;;;1.42;;
35225;SDS011;21813;49.686;21.766;2022-08-01T15:05:11;4.45;;;1.60;;
35225;SDS011;21813;49.686;21.766;2022-08-01T15:07:37;4.10;;;2.08;;
35225;SDS011;21813;49.686;21.766;2022-08-01T15:10:03;3.55;;;1.40;;
35225;SDS011;21813;49.686;21.766;2022-08-01T15:12:32;4.93;;;1.30;;
35225;SDS011;21813;49.686;21.766;2022-08-01T15:14:57;3.70;;;1.60;;
35225;SDS011;21813;49.686;21.766;2022-08-01T15:17:24;1.38;;;1.02;;
35225;SDS011;21813;49.686;21.766;2022-08-01T15:19:55;2.85;;;1.60;;
35225;SDS011;21813;49.686;21.766;2022-08-01T15:22:44;1.73;;;1.30;;
35225;SDS011;21813;49.686;21.766;2022-08-01T15:25:10;4.70;;;1.30;;
35225;SDS011;21813;49.686;21.766;2022-08-01T15:27:36;1.83;;;1.40;;
35225;SDS011;21813;49.686;21.766;2022-08-01T15:30:03;2.13;;;1.23;;
35225;SDS011;21813;49.686;21.766;2022-08-01T15:32:30;1.10;;;1.00;;
35225;SDS011;21813;49.686;21.766;2022-08-01T15:34:55;3.30;;;1.20;;
35225;SDS011;21813;49.686;21.766;2022-08-01T15:37:21;2.00;;;1.23;;
35225;SDS011;21813;49.686;21.766;2022-08-01T15:39:48;2.22;;;1.60;;
35225;SDS011;21813;49.686;21.766;2022-08-01T15:42:15;2.13;;;1.25;;
35225;SDS011;21813;49.686;21.766;2022-08-01T15:44:42;4.20;;;1.60;;
35225;SDS011;21813;49.686;21.766;2022-08-01T15:47:09;4.68;;;1.27;;
35225;SDS011;21813;49.686;21.766;2022-08-01T15:49:41;2.78;;;1.30;;
35225;SDS011;21813;49.686;21.766;2022-08-01T15:52:07;2.53;;;1.65;;
35225;SDS011;21813;49.686;21.766;2022-08-01T15:54:41;1.67;;;1.20;;
35225;SDS011;21813;49.686;21.766;2022-08-01T15:57:07;2.33;;;1.30;;
35225;SDS011;21813;49.686;21.766;2022-08-01T15:59:39;7.35;;;1.60;;
35225;SDS011;21813;49.686;21.766;2022-08-01T16:02:11;4.22;;;1.52;;
35225;SDS011;21813;49.686;21.766;2022-08-01T16:04:38;1.90;;;1.75;;
35225;SDS011;21813;49.686;21.766;2022-08-01T16:07:04;4.95;;;1.58;;
35225;SDS011;21813;49.686;21.766;2022-08-01T16:09:31;7.53;;;1.27;;
35225;SDS011;21813;49.686;21.766;2022-08-01T16:11:59;3.00;;;1.27;;
35225;SDS011;21813;49.686;21.766;2022-08-01T16:14:25;4.53;;;1.80;;
35225;SDS011;21813;49.686;21.766;2022-08-01T16:16:52;6.05;;;1.42;;
35225;SDS011;21813;49.686;21.766;2022-08-01T16:19:18;2.30;;;1.60;;
35225;SDS011;21813;49.686;21.766;2022-08-01T16:21:47;6.30;;;2.17;;
35225;SDS011;21813;49.686;21.766;2022-08-01T16:24:17;2.10;;;1.88;;
35225;SDS011;21813;49.686;21.766;2022-08-01T16:26:45;4.30;;;1.83;;
35225;SDS011;21813;49.686;21.766;2022-08-01T16:29:10;4.18;;;2.13;;
35225;SDS011;21813;49.686;21.766;2022-08-01T16:31:37;1.88;;;1.73;;
35225;SDS011;21813;49.686;21.766;2022-08-01T16:34:03;4.47;;;1.83;;
35225;SDS011;21813;49.686;21.766;2022-08-01T16:36:29;5.68;;;1.95;;
35225;SDS011;21813;49.686;21.766;2022-08-01T16:38:55;2.20;;;1.65;;
35225;SDS011;21813;49.686;21.766;2022-08-01T16:41:21;2.72;;;1.60;;
35225;SDS011;21813;49.686;21.766;2022-08-01T16:43:47;5.35;;;1.70;;
35225;SDS011;21813;49.686;21.766;2022-08-01T16:46:15;5.72;;;2.20;;
35225;SDS011;21813;49.686;21.766;2022-08-01T16:48:40;2.53;;;1.52;;
35225;SDS011;21813;49.686;21.766;2022-08-01T16:51:08;4.13;;;2.22;;
35225;SDS011;21813;49.686;21.766;2022-08-01T16:53:36;2.00;;;1.63;;
35225;SDS011;21813;49.686;21.766;2022-08-01T16:56:04;3.65;;;1.80;;
35225;SDS011;21813;49.686;21.766;2022-08-01T16:58:30;2.65;;;1.63;;
35225;SDS011;21813;49.686;21.766;2022-08-01T17:00:56;1.52;;;1.42;;
35225;SDS011;21813;49.686;21.766;2022-08-01T17:03:22;2.60;;;1.80;;
35225;SDS011;21813;49.686;21.766;2022-08-01T17:05:49;6.82;;;2.55;;
35225;SDS011;21813;49.686;21.766;2022-08-01T17:08:16;6.53;;;1.98;;
35225;SDS011;21813;49.686;21.766;2022-08-01T17:10:41;3.90;;;1.85;;
35225;SDS011;21813;49.686;21.766;2022-08-01T17:13:07;3.13;;;2.03;;
35225;SDS011;21813;49.686;21.766;2022-08-01T17:15:34;4.18;;;2.25;;
35225;SDS011;21813;49.686;21.766;2022-08-01T17:18:01;3.97;;;2.30;;
35225;SDS011;21813;49.686;21.766;2022-08-01T17:20:29;6.57;;;2.17;;
35225;SDS011;21813;49.686;21.766;2022-08-01T17:22:59;4.50;;;2.38;;
35225;SDS011;21813;49.686;21.766;2022-08-01T17:25:27;5.72;;;2.80;;
35225;SDS011;21813;49.686;21.766;2022-08-01T17:27:53;5.38;;;2.75;;
35225;SDS011;21813;49.686;21.766;2022-08-01T17:30:21;5.78;;;2.30;;
35225;SDS011;21813;49.686;21.766;2022-08-01T17:32:47;5.63;;;2.38;;
35225;SDS011;21813;49.686;21.766;2022-08-01T17:35:13;2.72;;;2.42;;
35225;SDS011;21813;49.686;21.766;2022-08-01T17:37:42;6.28;;;2.17;;
35225;SDS011;21813;49.686;21.766;2022-08-01T17:40:08;2.00;;;1.80;;
35225;SDS011;21813;49.686;21.766;2022-08-01T17:42:36;4.85;;;2.17;;
35225;SDS011;21813;49.686;21.766;2022-08-01T17:45:08;4.68;;;2.00;;
35225;SDS011;21813;49.686;21.766;2022-08-01T17:47:35;8.10;;;2.50;;
35225;SDS011;21813;49.686;21.766;2022-08-01T17:50:03;2.53;;;2.03;;
35225;SDS011;21813;49.686;21.766;2022-08-01T17:52:32;2.58;;;2.00;;